sensor_id;sensor_type;location;lat;lon;timestamp;P1;durP1;ratioP1;P2;durP2;ratioP2
20533;SDS011;12929;56.822;26.056;2023-08-24T00:01:04;5.47;;;1.90;;
20533;SDS011;12929;56.822;26.056;2023-08-24T00:03:32;10.43;;;2.25;;
20533;SDS011;12929;56.822;26.056;2023-08-24T00:06:00;7.15;;;2.38;;
20533;SDS011;12929;56.822;26.056;2023-08-24T00:08:27;5.20;;;1.90;;
20533;SDS011;12929;56.822;26.056;2023-08-24T00:10:55;5.35;;;1.95;;
20533;SDS011;12929;56.822;26.056;2023-08-24T00:13:23;5.68;;;1.85;;
20533;SDS011;12929;56.822;26.056;2023-08-24T00:15:50;4.03;;;1.88;;
20533;SDS011;12929;56.822;26.056;2023-08-24T00:18:20;6.72;;;2.10;;
20533;SDS011;12929;56.822;26.056;2023-08-24T00:20:50;5.88;;;1.90;;
20533;SDS011;12929;56.822;26.056;2023-08-24T00:23:18;3.15;;;1.90;;
20533;SDS011;12929;56.822;26.056;2023-08-24T00:25:46;5.57;;;2.72;;
20533;SDS011;12929;56.822;26.056;2023-08-24T00:28:14;5.55;;;2.13;;
20533;SDS011;12929;56.822;26.056;2023-08-24T00:30:41;2.92;;;1.98;;
20533;SDS011;12929;56.822;26.056;2023-08-24T00:33:10;9.57;;;2.25;;
20533;SDS011;12929;56.822;26.056;2023-08-24T00:35:38;6.90;;;2.20;;
20533;SDS011;12929;56.822;26.056;2023-08-24T00:38:05;7.45;;;2.67;;
20533;SDS011;12929;56.822;26.056;2023-08-24T00:40:33;3.53;;;2.30;;
20533;SDS011;12929;56.822;26.056;2023-08-24T00:43:01;6.82;;;2.25;;
20533;SDS011;12929;56.822;26.056;2023-08-24T00:45:29;5.47;;;2.33;;
20533;SDS011;12929;56.822;26.056;2023-08-24T00:48:01;6.35;;;2.17;;
20533;SDS011;12929;56.822;26.056;2023-08-24T00:50:29;5.93;;;2.35;;
20533;SDS011;12929;56.822;26.056;2023-08-24T00:52:57;4.57;;;1.90;;
20533;SDS011;12929;56.822;26.056;2023-08-24T00:55:25;6.45;;;1.92;;
20533;SDS011;12929;56.822;26.056;2023-08-24T00:57:52;5.78;;;2.30;;
20533;SDS011;12929;56.822;26.056;2023-08-24T01:00:20;3.72;;;1.90;;
20533;SDS011;12929;56.822;26.056;2023-08-24T01:02:50;5.20;;;2.22;;
20533;SDS011;12929;56.822;26.056;2023-08-24T01:05:17;4.35;;;2.22;;
20533;SDS011;12929;56.822;26.056;2023-08-24T01:07:45;4.70;;;2.55;;
20533;SDS011;12929;56.822;26.056;2023-08-24T01:10:13;8.25;;;2.60;;
20533;SDS011;12929;56.822;26.056;2023-08-24T01:12:50;5.95;;;2.58;;
20533;SDS011;12929;56.822;26.056;2023-08-24T01:15:38;3.30;;;2.30;;
20533;SDS011;12929;56.822;26.056;2023-08-24T01:18:22;4.90;;;2.30;;
20533;SDS011;12929;56.822;26.056;2023-08-24T01:20:53;8.73;;;2.70;;
20533;SDS011;12929;56.822;26.056;2023-08-24T01:23:28;6.22;;;2.70;;
20533;SDS011;12929;56.822;26.056;2023-08-24T01:28:36;6.45;;;2.53;;
20533;SDS011;12929;56.822;26.056;2023-08-24T01:31:06;4.22;;;2.30;;
20533;SDS011;12929;56.822;26.056;2023-08-24T01:33:34;9.38;;;2.63;;
20533;SDS011;12929;56.822;26.056;2023-08-24T01:36:02;4.80;;;2.83;;
20533;SDS011;12929;56.822;26.056;2023-08-24T01:38:30;3.65;;;2.10;;
20533;SDS011;12929;56.822;26.056;2023-08-24T01:40:59;3.50;;;2.70;;
20533;SDS011;12929;56.822;26.056;2023-08-24T01:43:29;7.60;;;2.90;;
20533;SDS011;12929;56.822;26.056;2023-08-24T01:46:11;8.77;;;3.28;;
20533;SDS011;12929;56.822;26.056;2023-08-24T01:48:42;2.28;;;1.85;;
20533;SDS011;12929;56.822;26.056;2023-08-24T01:51:11;7.47;;;2.35;;
20533;SDS011;12929;56.822;26.056;2023-08-24T01:53:40;3.65;;;2.10;;
20533;SDS011;12929;56.822;26.056;2023-08-24T01:56:09;5.38;;;2.35;;
20533;SDS011;12929;56.822;26.056;2023-08-24T01:58:41;5.57;;;2.65;;
20533;SDS011;12929;56.822;26.056;2023-08-24T02:01:08;7.30;;;3.08;;
20533;SDS011;12929;56.822;26.056;2023-08-24T02:03:37;7.25;;;2.65;;
20533;SDS011;12929;56.822;26.056;2023-08-24T02:06:08;4.35;;;2.08;;
20533;SDS011;12929;56.822;26.056;2023-08-24T02:08:37;5.00;;;2.28;;
20533;SDS011;12929;56.822;26.056;2023-08-24T02:11:04;5.28;;;2.10;;
20533;SDS011;12929;56.822;26.056;2023-08-24T02:13:32;6.43;;;2.97;;
20533;SDS011;12929;56.822;26.056;2023-08-24T02:16:01;9.15;;;2.63;;
20533;SDS011;12929;56.822;26.056;2023-08-24T02:18:34;8.50;;;3.05;;
20533;SDS011;12929;56.822;26.056;2023-08-24T02:21:09;7.15;;;3.03;;
20533;SDS011;12929;56.822;26.056;2023-08-24T02:23:39;5.35;;;2.75;;
20533;SDS011;12929;56.822;26.056;2023-08-24T02:26:07;6.95;;;3.00;;
20533;SDS011;12929;56.822;26.056;2023-08-24T02:28:36;3.63;;;2.72;;
20533;SDS011;12929;56.822;26.056;2023-08-24T02:31:05;6.28;;;2.85;;
20533;SDS011;12929;56.822;26.056;2023-08-24T02:33:32;6.50;;;2.40;;
20533;SDS011;12929;56.822;26.056;2023-08-24T02:36:00;5.93;;;2.72;;
20533;SDS011;12929;56.822;26.056;2023-08-24T02:38:28;8.73;;;2.75;;
20533;SDS011;12929;56.822;26.056;2023-08-24T02:41:02;3.63;;;2.63;;
20533;SDS011;12929;56.822;26.056;2023-08-24T02:43:31;6.45;;;2.90;;
20533;SDS011;12929;56.822;26.056;2023-08-24T02:45:59;4.97;;;2.95;;
20533;SDS011;12929;56.822;26.056;2023-08-24T02:48:31;7.93;;;2.55;;
20533;SDS011;12929;56.822;26.056;2023-08-24T02:51:01;7.95;;;3.03;;
20533;SDS011;12929;56.822;26.056;2023-08-24T02:53:30;3.65;;;2.80;;
20533;SDS011;12929;56.822;26.056;2023-08-24T02:55:58;3.88;;;2.80;;
20533;SDS011;12929;56.822;26.056;2023-08-24T02:58:26;7.55;;;3.63;;
20533;SDS011;12929;56.822;26.056;2023-08-24T03:00:54;7.85;;;3.30;;
20533;SDS011;12929;56.822;26.056;2023-08-24T03:03:23;7.43;;;3.40;;
20533;SDS011;12929;56.822;26.056;2023-08-24T03:05:55;7.50;;;3.38;;
20533;SDS011;12929;56.822;26.056;2023-08-24T03:08:28;7.95;;;3.67;;
20533;SDS011;12929;56.822;26.056;2023-08-24T03:11:00;4.57;;;3.20;;
20533;SDS011;12929;56.822;26.056;2023-08-24T03:13:29;10.57;;;3.47;;
20533;SDS011;12929;56.822;26.056;2023-08-24T03:16:02;6.07;;;3.38;;
20533;SDS011;12929;56.822;26.056;2023-08-24T03:18:31;4.97;;;3.03;;
20533;SDS011;12929;56.822;26.056;2023-08-24T03:21:01;7.45;;;3.25;;
20533;SDS011;12929;56.822;26.056;2023-08-24T03:23:32;6.50;;;2.90;;
20533;SDS011;12929;56.822;26.056;2023-08-24T03:25:59;7.45;;;3.00;;
20533;SDS011;12929;56.822;26.056;2023-08-24T03:28:27;8.55;;;3.65;;
20533;SDS011;12929;56.822;26.056;2023-08-24T03:30:55;9.80;;;4.60;;
20533;SDS011;12929;56.822;26.056;2023-08-24T03:33:23;8.50;;;3.90;;
20533;SDS011;12929;56.822;26.056;2023-08-24T03:35:51;8.52;;;4.10;;
20533;SDS011;12929;56.822;26.056;2023-08-24T03:38:19;14.82;;;5.65;;
20533;SDS011;12929;56.822;26.056;2023-08-24T03:40:47;17.38;;;6.40;;
20533;SDS011;12929;56.822;26.056;2023-08-24T03:43:15;10.95;;;5.00;;
20533;SDS011;12929;56.822;26.056;2023-08-24T03:45:42;15.05;;;7.43;;
20533;SDS011;12929;56.822;26.056;2023-08-24T03:48:11;18.77;;;9.48;;
20533;SDS011;12929;56.822;26.056;2023-08-24T03:50:38;15.18;;;8.00;;
20533;SDS011;12929;56.822;26.056;2023-08-24T03:53:06;13.93;;;8.68;;
20533;SDS011;12929;56.822;26.056;2023-08-24T03:55:34;14.55;;;8.27;;
20533;SDS011;12929;56.822;26.056;2023-08-24T03:58:03;14.95;;;8.30;;
20533;SDS011;12929;56.822;26.056;2023-08-24T04:00:31;14.88;;;8.80;;
20533;SDS011;12929;56.822;26.056;2023-08-24T04:03:00;15.48;;;8.65;;
20533;SDS011;12929;56.822;26.056;2023-08-24T04:05:29;15.45;;;8.85;;
20533;SDS011;12929;56.822;26.056;2023-08-24T04:07:57;16.95;;;9.07;;
20533;SDS011;12929;56.822;26.056;2023-08-24T04:10:28;14.38;;;8.85;;
20533;SDS011;12929;56.822;26.056;2023-08-24T04:12:57;14.93;;;9.20;;
20533;SDS011;12929;56.822;26.056;2023-08-24T04:15:25;17.30;;;9.75;;
20533;SDS011;12929;56.822;26.056;2023-08-24T04:17:53;13.38;;;7.45;;
20533;SDS011;12929;56.822;26.056;2023-08-24T04:20:21;12.07;;;7.38;;
20533;SDS011;12929;56.822;26.056;2023-08-24T04:22:49;12.32;;;8.07;;
20533;SDS011;12929;56.822;26.056;2023-08-24T04:25:16;12.18;;;7.65;;
20533;SDS011;12929;56.822;26.056;2023-08-24T04:27:44;12.80;;;7.40;;
20533;SDS011;12929;56.822;26.056;2023-08-24T04:30:12;12.85;;;8.40;;
20533;SDS011;12929;56.822;26.056;2023-08-24T04:32:40;13.70;;;7.65;;
20533;SDS011;12929;56.822;26.056;2023-08-24T04:35:08;13.88;;;7.70;;
20533;SDS011;12929;56.822;26.056;2023-08-24T04:37:37;10.57;;;6.45;;
20533;SDS011;12929;56.822;26.056;2023-08-24T04:40:05;8.23;;;6.07;;
20533;SDS011;12929;56.822;26.056;2023-08-24T04:42:34;11.25;;;6.07;;
20533;SDS011;12929;56.822;26.056;2023-08-24T04:45:01;7.15;;;4.93;;
20533;SDS011;12929;56.822;26.056;2023-08-24T04:47:29;8.07;;;5.38;;
20533;SDS011;12929;56.822;26.056;2023-08-24T04:49:56;11.05;;;6.15;;
20533;SDS011;12929;56.822;26.056;2023-08-24T04:52:24;7.70;;;4.88;;
20533;SDS011;12929;56.822;26.056;2023-08-24T04:54:51;4.80;;;3.40;;
20533;SDS011;12929;56.822;26.056;2023-08-24T04:57:19;7.75;;;4.50;;
20533;SDS011;12929;56.822;26.056;2023-08-24T04:59:49;5.72;;;3.95;;
20533;SDS011;12929;56.822;26.056;2023-08-24T05:02:17;5.07;;;3.70;;
20533;SDS011;12929;56.822;26.056;2023-08-24T05:04:44;7.18;;;4.38;;
20533;SDS011;12929;56.822;26.056;2023-08-24T05:07:12;8.13;;;4.85;;
20533;SDS011;12929;56.822;26.056;2023-08-24T05:09:39;8.93;;;4.85;;
20533;SDS011;12929;56.822;26.056;2023-08-24T05:12:07;8.82;;;4.53;;
20533;SDS011;12929;56.822;26.056;2023-08-24T05:14:34;5.53;;;4.50;;
20533;SDS011;12929;56.822;26.056;2023-08-24T05:17:02;7.82;;;4.72;;
20533;SDS011;12929;56.822;26.056;2023-08-24T05:19:30;16.85;;;4.63;;
20533;SDS011;12929;56.822;26.056;2023-08-24T05:21:57;9.63;;;5.25;;
20533;SDS011;12929;56.822;26.056;2023-08-24T05:24:25;5.45;;;3.88;;
20533;SDS011;12929;56.822;26.056;2023-08-24T05:26:52;9.30;;;5.15;;
20533;SDS011;12929;56.822;26.056;2023-08-24T05:29:20;4.85;;;4.28;;
20533;SDS011;12929;56.822;26.056;2023-08-24T05:31:47;10.82;;;4.10;;
20533;SDS011;12929;56.822;26.056;2023-08-24T05:34:15;6.20;;;4.35;;
20533;SDS011;12929;56.822;26.056;2023-08-24T05:36:42;9.40;;;4.80;;
20533;SDS011;12929;56.822;26.056;2023-08-24T05:39:10;15.45;;;4.95;;
20533;SDS011;12929;56.822;26.056;2023-08-24T05:41:38;7.15;;;4.93;;
20533;SDS011;12929;56.822;26.056;2023-08-24T05:44:07;7.05;;;4.80;;
20533;SDS011;12929;56.822;26.056;2023-08-24T05:46:36;10.52;;;5.97;;
20533;SDS011;12929;56.822;26.056;2023-08-24T05:49:04;14.68;;;6.70;;
20533;SDS011;12929;56.822;26.056;2023-08-24T05:51:31;9.88;;;6.28;;
20533;SDS011;12929;56.822;26.056;2023-08-24T05:54:00;12.60;;;7.68;;
20533;SDS011;12929;56.822;26.056;2023-08-24T05:56:27;11.32;;;7.68;;
20533;SDS011;12929;56.822;26.056;2023-08-24T05:58:57;16.42;;;8.60;;
20533;SDS011;12929;56.822;26.056;2023-08-24T06:01:25;15.00;;;9.05;;
20533;SDS011;12929;56.822;26.056;2023-08-24T06:03:53;19.98;;;11.15;;
20533;SDS011;12929;56.822;26.056;2023-08-24T06:06:21;18.00;;;10.98;;
20533;SDS011;12929;56.822;26.056;2023-08-24T06:08:52;23.65;;;12.55;;
20533;SDS011;12929;56.822;26.056;2023-08-24T06:11:20;29.50;;;16.50;;
20533;SDS011;12929;56.822;26.056;2023-08-24T06:13:47;31.50;;;17.88;;
20533;SDS011;12929;56.822;26.056;2023-08-24T06:16:16;30.25;;;16.33;;
20533;SDS011;12929;56.822;26.056;2023-08-24T06:18:45;28.95;;;15.27;;
20533;SDS011;12929;56.822;26.056;2023-08-24T06:21:12;27.08;;;15.82;;
20533;SDS011;12929;56.822;26.056;2023-08-24T06:23:41;27.75;;;15.85;;
20533;SDS011;12929;56.822;26.056;2023-08-24T06:26:09;25.85;;;14.85;;
20533;SDS011;12929;56.822;26.056;2023-08-24T06:28:36;23.13;;;14.18;;
20533;SDS011;12929;56.822;26.056;2023-08-24T06:31:04;26.45;;;14.07;;
20533;SDS011;12929;56.822;26.056;2023-08-24T06:33:35;25.40;;;15.10;;
20533;SDS011;12929;56.822;26.056;2023-08-24T06:36:11;22.83;;;13.75;;
20533;SDS011;12929;56.822;26.056;2023-08-24T06:38:38;22.13;;;13.50;;
20533;SDS011;12929;56.822;26.056;2023-08-24T06:41:06;17.05;;;10.18;;
20533;SDS011;12929;56.822;26.056;2023-08-24T06:43:39;16.20;;;9.80;;
20533;SDS011;12929;56.822;26.056;2023-08-24T06:46:06;12.25;;;9.07;;
20533;SDS011;12929;56.822;26.056;2023-08-24T06:48:35;12.70;;;7.95;;
20533;SDS011;12929;56.822;26.056;2023-08-24T06:51:06;13.05;;;8.60;;
20533;SDS011;12929;56.822;26.056;2023-08-24T06:53:33;12.85;;;9.18;;
20533;SDS011;12929;56.822;26.056;2023-08-24T06:56:01;13.32;;;9.75;;
20533;SDS011;12929;56.822;26.056;2023-08-24T06:58:29;16.30;;;11.13;;
20533;SDS011;12929;56.822;26.056;2023-08-24T07:00:56;16.83;;;10.68;;
20533;SDS011;12929;56.822;26.056;2023-08-24T07:03:24;19.58;;;10.27;;
20533;SDS011;12929;56.822;26.056;2023-08-24T07:05:53;17.58;;;8.45;;
20533;SDS011;12929;56.822;26.056;2023-08-24T07:08:21;12.50;;;8.88;;
20533;SDS011;12929;56.822;26.056;2023-08-24T07:10:49;12.10;;;8.77;;
20533;SDS011;12929;56.822;26.056;2023-08-24T07:13:19;11.70;;;9.27;;
20533;SDS011;12929;56.822;26.056;2023-08-24T07:16:11;13.02;;;8.07;;
20533;SDS011;12929;56.822;26.056;2023-08-24T07:18:40;11.27;;;6.22;;
20533;SDS011;12929;56.822;26.056;2023-08-24T07:21:08;10.02;;;5.93;;
20533;SDS011;12929;56.822;26.056;2023-08-24T07:23:37;10.05;;;5.55;;
20533;SDS011;12929;56.822;26.056;2023-08-24T07:26:05;6.10;;;4.50;;
20533;SDS011;12929;56.822;26.056;2023-08-24T07:28:35;8.48;;;4.90;;
20533;SDS011;12929;56.822;26.056;2023-08-24T07:31:09;6.03;;;4.65;;
20533;SDS011;12929;56.822;26.056;2023-08-24T07:33:37;12.25;;;5.43;;
20533;SDS011;12929;56.822;26.056;2023-08-24T07:36:10;8.15;;;5.57;;
20533;SDS011;12929;56.822;26.056;2023-08-24T07:38:38;12.27;;;5.55;;
20533;SDS011;12929;56.822;26.056;2023-08-24T07:41:07;8.10;;;5.40;;
20533;SDS011;12929;56.822;26.056;2023-08-24T07:43:36;9.68;;;5.50;;
20533;SDS011;12929;56.822;26.056;2023-08-24T07:46:04;9.10;;;5.65;;
20533;SDS011;12929;56.822;26.056;2023-08-24T07:48:35;9.38;;;5.93;;
20533;SDS011;12929;56.822;26.056;2023-08-24T07:51:02;8.38;;;4.95;;
20533;SDS011;12929;56.822;26.056;2023-08-24T07:53:30;10.80;;;5.63;;
20533;SDS011;12929;56.822;26.056;2023-08-24T07:56:00;8.45;;;5.63;;
20533;SDS011;12929;56.822;26.056;2023-08-24T07:58:28;14.70;;;5.93;;
20533;SDS011;12929;56.822;26.056;2023-08-24T08:00:59;12.07;;;5.63;;
20533;SDS011;12929;56.822;26.056;2023-08-24T08:03:27;11.13;;;5.57;;
20533;SDS011;12929;56.822;26.056;2023-08-24T08:05:54;10.10;;;6.45;;
20533;SDS011;12929;56.822;26.056;2023-08-24T08:08:22;9.45;;;6.55;;
20533;SDS011;12929;56.822;26.056;2023-08-24T08:10:57;9.23;;;6.40;;
20533;SDS011;12929;56.822;26.056;2023-08-24T08:13:29;15.48;;;6.63;;
20533;SDS011;12929;56.822;26.056;2023-08-24T08:16:02;11.57;;;6.63;;
20533;SDS011;12929;56.822;26.056;2023-08-24T08:18:31;8.10;;;6.22;;
20533;SDS011;12929;56.822;26.056;2023-08-24T08:20:59;8.63;;;6.07;;
20533;SDS011;12929;56.822;26.056;2023-08-24T08:23:27;8.77;;;6.10;;
20533;SDS011;12929;56.822;26.056;2023-08-24T08:25:55;11.32;;;6.35;;
20533;SDS011;12929;56.822;26.056;2023-08-24T08:28:23;7.18;;;5.97;;
20533;SDS011;12929;56.822;26.056;2023-08-24T08:30:50;18.00;;;6.30;;
20533;SDS011;12929;56.822;26.056;2023-08-24T08:33:18;13.38;;;7.43;;
20533;SDS011;12929;56.822;26.056;2023-08-24T08:35:48;11.25;;;6.20;;
20533;SDS011;12929;56.822;26.056;2023-08-24T08:38:16;10.80;;;7.35;;
20533;SDS011;12929;56.822;26.056;2023-08-24T08:40:43;11.93;;;7.63;;
20533;SDS011;12929;56.822;26.056;2023-08-24T08:43:13;11.65;;;7.07;;
20533;SDS011;12929;56.822;26.056;2023-08-24T08:45:40;14.18;;;8.15;;
20533;SDS011;12929;56.822;26.056;2023-08-24T08:48:08;12.10;;;7.10;;
20533;SDS011;12929;56.822;26.056;2023-08-24T08:50:37;9.68;;;6.72;;
20533;SDS011;12929;56.822;26.056;2023-08-24T08:53:05;13.30;;;6.60;;
20533;SDS011;12929;56.822;26.056;2023-08-24T08:55:32;9.82;;;6.47;;
20533;SDS011;12929;56.822;26.056;2023-08-24T08:58:00;10.10;;;6.18;;
20533;SDS011;12929;56.822;26.056;2023-08-24T09:00:31;10.63;;;6.68;;
20533;SDS011;12929;56.822;26.056;2023-08-24T09:02:59;13.07;;;7.45;;
20533;SDS011;12929;56.822;26.056;2023-08-24T09:05:28;10.27;;;6.05;;
20533;SDS011;12929;56.822;26.056;2023-08-24T09:07:59;9.30;;;5.75;;
20533;SDS011;12929;56.822;26.056;2023-08-24T09:10:30;10.25;;;6.78;;
20533;SDS011;12929;56.822;26.056;2023-08-24T09:12:59;11.05;;;6.07;;
20533;SDS011;12929;56.822;26.056;2023-08-24T09:15:27;11.23;;;5.93;;
20533;SDS011;12929;56.822;26.056;2023-08-24T09:18:09;11.40;;;6.72;;
20533;SDS011;12929;56.822;26.056;2023-08-24T09:20:40;9.10;;;6.93;;
20533;SDS011;12929;56.822;26.056;2023-08-24T09:23:16;11.43;;;7.10;;
20533;SDS011;12929;56.822;26.056;2023-08-24T09:25:48;10.10;;;6.40;;
20533;SDS011;12929;56.822;26.056;2023-08-24T09:28:22;10.27;;;7.10;;
20533;SDS011;12929;56.822;26.056;2023-08-24T09:30:52;10.13;;;6.60;;
20533;SDS011;12929;56.822;26.056;2023-08-24T09:33:33;9.80;;;6.65;;
20533;SDS011;12929;56.822;26.056;2023-08-24T09:36:05;12.25;;;7.03;;
20533;SDS011;12929;56.822;26.056;2023-08-24T09:38:35;8.95;;;6.57;;
20533;SDS011;12929;56.822;26.056;2023-08-24T09:41:14;9.93;;;6.82;;
20533;SDS011;12929;56.822;26.056;2023-08-24T09:43:42;10.23;;;6.60;;
20533;SDS011;12929;56.822;26.056;2023-08-24T09:46:12;10.80;;;6.10;;
20533;SDS011;12929;56.822;26.056;2023-08-24T09:48:53;8.63;;;6.43;;
20533;SDS011;12929;56.822;26.056;2023-08-24T09:51:28;10.35;;;6.72;;
20533;SDS011;12929;56.822;26.056;2023-08-24T09:53:58;10.18;;;7.65;;
20533;SDS011;12929;56.822;26.056;2023-08-24T09:56:46;11.63;;;6.93;;
20533;SDS011;12929;56.822;26.056;2023-08-24T09:59:18;7.70;;;6.32;;
20533;SDS011;12929;56.822;26.056;2023-08-24T10:01:56;8.85;;;6.30;;
20533;SDS011;12929;56.822;26.056;2023-08-24T10:04:33;8.95;;;6.10;;
20533;SDS011;12929;56.822;26.056;2023-08-24T10:07:28;9.00;;;6.13;;
20533;SDS011;12929;56.822;26.056;2023-08-24T10:10:02;10.07;;;5.97;;
20533;SDS011;12929;56.822;26.056;2023-08-24T10:12:36;9.30;;;6.50;;
20533;SDS011;12929;56.822;26.056;2023-08-24T10:15:08;8.40;;;6.00;;
20533;SDS011;12929;56.822;26.056;2023-08-24T10:17:39;11.07;;;6.40;;
20533;SDS011;12929;56.822;26.056;2023-08-24T10:20:14;8.60;;;6.40;;
20533;SDS011;12929;56.822;26.056;2023-08-24T10:22:51;8.00;;;5.45;;
20533;SDS011;12929;56.822;26.056;2023-08-24T10:25:19;11.90;;;6.43;;
20533;SDS011;12929;56.822;26.056;2023-08-24T10:27:50;7.43;;;6.40;;
20533;SDS011;12929;56.822;26.056;2023-08-24T10:30:21;10.35;;;6.43;;
20533;SDS011;12929;56.822;26.056;2023-08-24T10:32:49;9.13;;;5.93;;
20533;SDS011;12929;56.822;26.056;2023-08-24T10:35:21;9.10;;;5.10;;
20533;SDS011;12929;56.822;26.056;2023-08-24T10:37:51;7.05;;;5.88;;
20533;SDS011;12929;56.822;26.056;2023-08-24T10:40:31;8.75;;;6.18;;
20533;SDS011;12929;56.822;26.056;2023-08-24T10:43:03;9.38;;;5.78;;
20533;SDS011;12929;56.822;26.056;2023-08-24T10:48:30;7.57;;;6.30;;
20533;SDS011;12929;56.822;26.056;2023-08-24T10:51:20;7.28;;;6.40;;
20533;SDS011;12929;56.822;26.056;2023-08-24T10:53:51;8.07;;;5.75;;
20533;SDS011;12929;56.822;26.056;2023-08-24T10:56:36;7.68;;;5.82;;
20533;SDS011;12929;56.822;26.056;2023-08-24T10:59:15;7.30;;;4.90;;
20533;SDS011;12929;56.822;26.056;2023-08-24T11:01:54;7.72;;;4.90;;
20533;SDS011;12929;56.822;26.056;2023-08-24T11:04:25;7.72;;;4.80;;
20533;SDS011;12929;56.822;26.056;2023-08-24T11:06:59;5.70;;;4.03;;
20533;SDS011;12929;56.822;26.056;2023-08-24T11:09:45;7.85;;;4.43;;
20533;SDS011;12929;56.822;26.056;2023-08-24T11:12:18;6.07;;;3.90;;
20533;SDS011;12929;56.822;26.056;2023-08-24T11:14:50;6.55;;;4.55;;
20533;SDS011;12929;56.822;26.056;2023-08-24T11:17:30;6.60;;;4.53;;
20533;SDS011;12929;56.822;26.056;2023-08-24T11:20:00;9.23;;;4.28;;
20533;SDS011;12929;56.822;26.056;2023-08-24T11:22:31;7.07;;;3.80;;
20533;SDS011;12929;56.822;26.056;2023-08-24T11:24:59;6.40;;;3.95;;
20533;SDS011;12929;56.822;26.056;2023-08-24T11:27:28;7.85;;;4.05;;
20533;SDS011;12929;56.822;26.056;2023-08-24T11:29:59;6.22;;;4.65;;
20533;SDS011;12929;56.822;26.056;2023-08-24T11:32:29;6.25;;;3.33;;
20533;SDS011;12929;56.822;26.056;2023-08-24T11:35:04;6.00;;;3.78;;
20533;SDS011;12929;56.822;26.056;2023-08-24T11:37:33;6.57;;;3.90;;
20533;SDS011;12929;56.822;26.056;2023-08-24T11:40:02;6.75;;;3.40;;
20533;SDS011;12929;56.822;26.056;2023-08-24T11:42:36;5.75;;;4.15;;
20533;SDS011;12929;56.822;26.056;2023-08-24T11:45:04;7.95;;;4.15;;
20533;SDS011;12929;56.822;26.056;2023-08-24T11:47:40;5.88;;;3.97;;
20533;SDS011;12929;56.822;26.056;2023-08-24T11:50:08;6.40;;;4.28;;
20533;SDS011;12929;56.822;26.056;2023-08-24T11:52:41;7.20;;;4.78;;
20533;SDS011;12929;56.822;26.056;2023-08-24T11:55:11;6.50;;;4.47;;
20533;SDS011;12929;56.822;26.056;2023-08-24T11:57:39;8.13;;;4.60;;
20533;SDS011;12929;56.822;26.056;2023-08-24T12:00:06;8.30;;;4.57;;
20533;SDS011;12929;56.822;26.056;2023-08-24T12:02:36;8.82;;;4.57;;
20533;SDS011;12929;56.822;26.056;2023-08-24T12:05:07;6.68;;;4.80;;
20533;SDS011;12929;56.822;26.056;2023-08-24T12:07:46;5.40;;;4.28;;
20533;SDS011;12929;56.822;26.056;2023-08-24T12:10:15;7.80;;;5.38;;
20533;SDS011;12929;56.822;26.056;2023-08-24T12:12:43;8.40;;;5.93;;
20533;SDS011;12929;56.822;26.056;2023-08-24T12:15:18;8.25;;;4.93;;
20533;SDS011;12929;56.822;26.056;2023-08-24T12:17:49;7.93;;;5.78;;
20533;SDS011;12929;56.822;26.056;2023-08-24T12:20:20;8.02;;;5.07;;
20533;SDS011;12929;56.822;26.056;2023-08-24T12:22:52;9.43;;;5.55;;
20533;SDS011;12929;56.822;26.056;2023-08-24T12:25:24;6.97;;;4.75;;
20533;SDS011;12929;56.822;26.056;2023-08-24T12:27:52;6.57;;;4.72;;
20533;SDS011;12929;56.822;26.056;2023-08-24T12:30:58;7.88;;;4.75;;
20533;SDS011;12929;56.822;26.056;2023-08-24T12:33:31;6.55;;;3.88;;
20533;SDS011;12929;56.822;26.056;2023-08-24T12:36:00;6.40;;;4.00;;
20533;SDS011;12929;56.822;26.056;2023-08-24T12:38:29;6.03;;;3.80;;
20533;SDS011;12929;56.822;26.056;2023-08-24T12:40:57;6.80;;;3.70;;
20533;SDS011;12929;56.822;26.056;2023-08-24T12:43:25;4.78;;;3.10;;
20533;SDS011;12929;56.822;26.056;2023-08-24T12:45:53;5.60;;;3.28;;
20533;SDS011;12929;56.822;26.056;2023-08-24T12:48:23;5.82;;;3.10;;
20533;SDS011;12929;56.822;26.056;2023-08-24T12:50:50;5.80;;;3.50;;
20533;SDS011;12929;56.822;26.056;2023-08-24T12:53:18;7.60;;;3.38;;
20533;SDS011;12929;56.822;26.056;2023-08-24T12:55:46;3.72;;;2.42;;
20533;SDS011;12929;56.822;26.056;2023-08-24T12:58:16;4.38;;;2.97;;
20533;SDS011;12929;56.822;26.056;2023-08-24T13:00:45;4.05;;;2.80;;
20533;SDS011;12929;56.822;26.056;2023-08-24T13:03:14;5.25;;;3.17;;
20533;SDS011;12929;56.822;26.056;2023-08-24T13:05:42;4.18;;;3.20;;
20533;SDS011;12929;56.822;26.056;2023-08-24T13:08:10;7.82;;;3.63;;
20533;SDS011;12929;56.822;26.056;2023-08-24T13:10:38;4.50;;;3.30;;
20533;SDS011;12929;56.822;26.056;2023-08-24T13:13:06;5.57;;;3.08;;
20533;SDS011;12929;56.822;26.056;2023-08-24T13:15:35;4.10;;;3.00;;
20533;SDS011;12929;56.822;26.056;2023-08-24T13:18:03;6.90;;;3.40;;
20533;SDS011;12929;56.822;26.056;2023-08-24T13:20:32;6.15;;;3.53;;
20533;SDS011;12929;56.822;26.056;2023-08-24T13:23:08;4.97;;;3.30;;
20533;SDS011;12929;56.822;26.056;2023-08-24T13:25:50;5.88;;;3.58;;
20533;SDS011;12929;56.822;26.056;2023-08-24T13:28:19;5.43;;;3.80;;
20533;SDS011;12929;56.822;26.056;2023-08-24T13:30:48;11.40;;;4.45;;
20533;SDS011;12929;56.822;26.056;2023-08-24T13:33:21;5.78;;;3.72;;
20533;SDS011;12929;56.822;26.056;2023-08-24T13:36:00;6.63;;;4.30;;
20533;SDS011;12929;56.822;26.056;2023-08-24T13:38:32;5.40;;;3.88;;
20533;SDS011;12929;56.822;26.056;2023-08-24T13:41:00;5.70;;;4.05;;
20533;SDS011;12929;56.822;26.056;2023-08-24T13:43:32;6.53;;;4.32;;
20533;SDS011;12929;56.822;26.056;2023-08-24T13:45:59;6.55;;;4.65;;
20533;SDS011;12929;56.822;26.056;2023-08-24T13:48:30;7.65;;;4.57;;
20533;SDS011;12929;56.822;26.056;2023-08-24T13:51:02;8.68;;;5.15;;
20533;SDS011;12929;56.822;26.056;2023-08-24T13:53:30;11.38;;;4.53;;
20533;SDS011;12929;56.822;26.056;2023-08-24T13:56:09;7.90;;;4.45;;
20533;SDS011;12929;56.822;26.056;2023-08-24T13:58:37;7.60;;;4.70;;
20533;SDS011;12929;56.822;26.056;2023-08-24T14:01:04;6.03;;;4.38;;
20533;SDS011;12929;56.822;26.056;2023-08-24T14:03:33;6.78;;;4.78;;
20533;SDS011;12929;56.822;26.056;2023-08-24T14:06:02;7.53;;;4.82;;
20533;SDS011;12929;56.822;26.056;2023-08-24T14:08:29;7.55;;;4.72;;
20533;SDS011;12929;56.822;26.056;2023-08-24T14:10:59;6.38;;;4.45;;
20533;SDS011;12929;56.822;26.056;2023-08-24T14:13:27;8.13;;;5.35;;
20533;SDS011;12929;56.822;26.056;2023-08-24T14:15:56;8.43;;;5.47;;
20533;SDS011;12929;56.822;26.056;2023-08-24T14:18:25;13.30;;;5.57;;
20533;SDS011;12929;56.822;26.056;2023-08-24T14:20:55;11.15;;;5.82;;
20533;SDS011;12929;56.822;26.056;2023-08-24T14:23:24;7.72;;;5.63;;
20533;SDS011;12929;56.822;26.056;2023-08-24T14:25:53;9.93;;;5.53;;
20533;SDS011;12929;56.822;26.056;2023-08-24T14:28:23;10.18;;;5.97;;
20533;SDS011;12929;56.822;26.056;2023-08-24T14:30:51;11.00;;;5.78;;
20533;SDS011;12929;56.822;26.056;2023-08-24T14:33:19;8.30;;;5.07;;
20533;SDS011;12929;56.822;26.056;2023-08-24T14:35:53;8.48;;;5.65;;
20533;SDS011;12929;56.822;26.056;2023-08-24T14:38:20;10.55;;;5.70;;
20533;SDS011;12929;56.822;26.056;2023-08-24T14:40:48;10.85;;;6.15;;
20533;SDS011;12929;56.822;26.056;2023-08-24T14:43:16;9.70;;;6.60;;
20533;SDS011;12929;56.822;26.056;2023-08-24T14:45:43;8.75;;;6.15;;
20533;SDS011;12929;56.822;26.056;2023-08-24T14:48:11;13.23;;;6.55;;
20533;SDS011;12929;56.822;26.056;2023-08-24T14:50:40;8.18;;;5.65;;